This is the latest recevied weather packets stored in our database for station/object PU2ONU-13. If no packets are shown the sender has not sent any weather packets the latest 10 day(s).
| Time | Temp. | Humidity | Pressure | Rain* | Wind** | Luminosity | Snow |
|---|---|---|---|---|---|---|---|
| 1777786813 | 27.78° C | 42% | 1017 hPa | - | - | - | - |
| 1777785614 | 27.22° C | 44% | 1018 hPa | - | - | - | - |
| 1777784412 | 28.33° C | 42% | 1017 hPa | - | - | - | - |
| 1777783213 | 28.33° C | 41% | 1017 hPa | - | - | - | - |
| 1777782016 | 28.33° C | 42% | 1018 hPa | - | - | - | - |
| 1777780812 | 27.78° C | 43% | 1018 hPa | - | - | - | - |
| 1777779615 | 29.44° C | 41% | 1018 hPa | - | - | - | - |
| 1777778413 | 30° C | 39% | 1019 hPa | - | - | - | - |
| 1777777213 | 29.44° C | 41% | 1018 hPa | - | - | - | - |
| 1777776013 | 29.44° C | 38% | 1018 hPa | - | - | - | - |
| 1777774814 | 30° C | 38% | 1020 hPa | - | - | - | - |
| 1777770013 | 31.11° C | 33% | 1018 hPa | - | - | - | - |
| 1777767612 | 31.11° C | 34% | 1019 hPa | - | - | - | - |
| 1777761613 | 32.22° C | 32% | 1018 hPa | - | - | - | - |
| 1777760412 | 31.11° C | 33% | 1019 hPa | - | - | - | - |
| 1777756815 | 28.89° C | 41% | 1018 hPa | - | - | - | - |
| 1777753213 | 32.22° C | 30% | 1017 hPa | - | - | - | - |
| 1777747213 | 31.11° C | 31% | 1016 hPa | - | - | - | - |
| 1777746013 | 31.11° C | 32% | 1017 hPa | - | - | - | - |
| 1777744813 | 31.11° C | 32% | 1017 hPa | - | - | - | - |
| 1777743614 | 30° C | 32% | 1017 hPa | - | - | - | - |
| 1777741214 | 30° C | 32% | 1017 hPa | - | - | - | - |
| 1777736413 | 29.44° C | 36% | 1019 hPa | - | - | - | - |
| 1777735212 | 29.44° C | 37% | 1020 hPa | - | - | - | - |
| 1777734012 | 28.89° C | 38% | 1019 hPa | - | - | - | - |
* Rain since midnight (hover to see other rain measurements)
** Current wind speed in m/s (hover to see current wind gust speed)